Time;durP1;ratioP1;P1;durP2;ratioP2;P2;SDS_P1;SDS_P2;PMS_P1;PMS_P2;Temp;Humidity;BMP_temperature;BMP_pressure;BME280_temperature;BME280_humidity;BME280_pressure;Samples;Min_cycle;Max_cycle;Signal;HPM_P1;HPM_P2
2022/12/06 00:01:12;;;;;;;23.37;6.90;;;;;;;12.79;71.99;99833.16;6250144;22;20159;-89
2022/12/06 00:03:38;;;;;;;19.37;7.07;;;;;;;12.70;72.01;99824.91;6277243;22;20184;-89
2022/12/06 00:06:09;;;;;;;25.33;6.87;;;;;;;12.68;72.69;99830.22;6250045;22;20565;-88
2022/12/06 00:08:35;;;;;;;18.40;7.27;;;;;;;12.69;72.68;99821.41;6277075;22;20165;-89
2022/12/06 00:11:09;;;;;;;22.17;7.77;;;;;;;12.67;72.68;99820.63;6276797;22;20148;-89
2022/12/06 00:13:35;;;;;;;22.63;6.70;;;;;;;12.67;72.50;99823.28;6250462;22;20147;-88
2022/12/06 00:16:02;;;;;;;20.13;7.23;;;;;;;12.68;72.92;99816.22;6277050;22;20150;-89
2022/12/06 00:18:29;;;;;;;18.10;6.60;;;;;;;12.71;72.49;99819.53;6249913;22;20163;-89
2022/12/06 00:20:55;;;;;;;21.93;7.00;;;;;;;12.60;72.81;99816.63;6276707;22;20229;-89
2022/12/06 00:23:20;;;;;;;21.00;7.17;;;;;;;12.62;73.22;99817.38;6276509;22;20194;-88
2022/12/06 00:25:46;;;;;;;17.77;6.40;;;;;;;12.73;73.00;99809.81;6276902;22;20683;-89
2022/12/06 00:28:11;;;;;;;21.03;7.17;;;;;;;12.76;72.53;99812.25;6276700;22;20577;-89
2022/12/06 00:30:37;;;;;;;18.80;6.93;;;;;;;12.79;72.51;99806.00;6276562;22;20160;-88
2022/12/06 00:33:02;;;;;;;22.07;7.23;;;;;;;12.84;72.20;99809.28;6276564;22;20157;-88
2022/12/06 00:35:28;;;;;;;22.67;6.83;;;;;;;12.79;72.19;99809.50;6276606;22;20569;-88
2022/12/06 00:37:53;;;;;;;16.30;6.17;;;;;;;12.79;72.31;99808.63;6249912;22;20154;-89
2022/12/06 00:40:19;;;;;;;25.17;7.07;;;;;;;12.78;72.88;99806.94;6276519;22;20151;-89
2022/12/06 00:42:44;;;;;;;23.23;7.33;;;;;;;12.83;72.72;99803.16;6249796;22;20216;-89
2022/12/06 00:45:10;;;;;;;17.73;7.07;;;;;;;12.88;72.21;99806.41;6277053;22;20568;-88
2022/12/06 00:47:35;;;;;;;18.30;6.77;;;;;;;12.84;72.50;99804.84;6276440;22;20183;-89
2022/12/06 00:50:01;;;;;;;15.33;6.27;;;;;;;12.86;72.76;99805.63;6276421;22;20150;-88
2022/12/06 00:52:26;;;;;;;22.83;7.43;;;;;;;12.87;72.43;99807.31;6276470;22;20150;-89
2022/12/06 00:54:51;;;;;;;16.67;7.17;;;;;;;12.87;72.37;99796.78;6276446;22;20638;-89
2022/12/06 00:57:17;;;;;;;18.23;6.50;;;;;;;12.86;72.37;99797.75;6276738;22;20146;-89
2022/12/06 00:59:42;;;;;;;18.90;5.97;;;;;;;12.90;72.63;99803.69;6277031;22;20151;-89
2022/12/06 01:02:08;;;;;;;16.27;7.43;;;;;;;12.86;72.02;99802.16;6276625;22;20221;-89
2022/12/06 01:04:35;;;;;;;18.30;7.43;;;;;;;12.85;72.08;99800.44;6276263;22;20157;-89
2022/12/06 01:07:01;;;;;;;21.17;7.73;;;;;;;12.81;72.38;99791.84;6276211;22;20183;-89
2022/12/06 01:09:29;;;;;;;17.40;7.83;;;;;;;12.89;72.64;99802.00;6276372;22;20177;-89
2022/12/06 01:11:56;;;;;;;15.90;6.67;;;;;;;12.89;72.27;99802.81;6276950;22;20151;-89
2022/12/06 01:14:23;;;;;;;17.00;8.33;;;;;;;12.92;72.30;99796.53;6276325;22;20250;-89
2022/12/06 01:16:48;;;;;;;18.83;7.20;;;;;;;12.90;72.11;99799.28;6276300;22;20173;-88
2022/12/06 01:19:14;;;;;;;16.63;6.90;;;;;;;12.91;71.94;99795.72;6276279;22;20574;-89
2022/12/06 01:21:39;;;;;;;17.50;7.10;;;;;;;12.91;72.28;99784.34;6276065;22;20204;-88
2022/12/06 01:24:05;;;;;;;19.23;8.70;;;;;;;12.90;72.00;99777.38;6249662;22;20150;-89
2022/12/06 01:26:33;;;;;;;15.43;7.20;;;;;;;12.95;71.63;99777.97;6276767;22;20178;-89
2022/12/06 01:28:59;;;;;;;19.00;6.87;;;;;;;12.94;72.00;99779.75;6276596;22;20158;-88
2022/12/06 01:31:26;;;;;;;16.90;7.33;;;;;;;12.94;71.71;99778.94;6276189;22;20158;-89
2022/12/06 01:33:51;;;;;;;17.17;7.60;;;;;;;12.97;71.56;99772.66;6249476;22;20548;-89
2022/12/06 01:36:20;;;;;;;15.97;6.30;;;;;;;12.94;71.75;99773.66;6276155;22;20174;-89
2022/12/06 01:38:50;;;;;;;24.73;7.47;;;;;;;12.94;71.55;99776.28;6276171;22;20659;-89
2022/12/06 01:41:17;;;;;;;15.47;6.73;;;;;;;12.88;71.74;99774.81;6276344;22;20161;-89
2022/12/06 01:43:43;;;;;;;17.70;5.80;;;;;;;12.88;72.44;99774.81;6278207;22;20179;-88
2022/12/06 01:46:20;;;;;;;14.20;6.97;;;;;;;12.89;71.85;99765.97;6251366;22;20184;-89
2022/12/06 01:48:52;;;;;;;17.07;7.33;;;;;;;12.92;71.91;99764.97;6278501;22;20145;-89
2022/12/06 01:51:18;;;;;;;17.67;6.40;;;;;;;12.98;71.73;99762.03;6251488;22;20296;-89
2022/12/06 01:53:47;;;;;;;17.50;6.70;;;;;;;12.94;71.50;99758.69;6278064;22;20176;-89
2022/12/06 01:56:13;;;;;;;20.57;7.37;;;;;;;12.95;71.60;99759.56;6278196;22;20148;-89
2022/12/06 01:58:42;;;;;;;20.70;8.47;;;;;;;12.94;71.66;99757.88;6278138;22;20191;-89
2022/12/06 02:01:09;;;;;;;15.23;6.27;;;;;;;12.93;71.80;99750.91;6251309;22;20163;-89
2022/12/06 02:03:36;;;;;;;17.47;7.43;;;;;;;12.92;71.52;99752.66;6278380;22;20170;-88
2022/12/06 02:06:07;;;;;;;19.43;7.50;;;;;;;12.93;71.82;99741.22;6277948;22;20182;-89
2022/12/06 02:08:33;;;;;;;22.33;7.67;;;;;;;12.95;71.49;99741.13;6278445;22;20144;-89
2022/12/06 02:11:01;;;;;;;19.17;7.93;;;;;;;12.99;71.75;99739.19;6278347;22;20177;-88
2022/12/06 02:13:29;;;;;;;20.27;7.17;;;;;;;12.99;71.39;99741.84;6277910;22;20151;-89
2022/12/06 02:16:25;;;;;;;23.70;7.93;;;;;;;13.00;71.55;99731.22;6251194;22;20220;-89
2022/12/06 02:18:58;;;;;;;34.20;9.77;;;;;;;12.96;71.54;99729.69;6278626;22;20154;-88
2022/12/06 02:21:40;;;;;;;27.70;9.07;;;;;;;12.93;71.23;99735.97;6251201;22;20234;-89
2022/12/06 02:24:27;;;;;;;24.50;7.87;;;;;;;12.92;71.49;99733.41;6278228;22;20144;-88
2022/12/06 02:27:31;;;;;;;21.33;8.40;;;;;;;12.93;71.42;99729.84;6278371;22;20173;-89
2022/12/06 02:30:08;;;;;;;27.73;8.40;;;;;;;12.93;71.53;99727.22;6278483;22;20141;-89
2022/12/06 02:32:58;;;;;;;45.73;10.60;;;;;;;12.91;71.68;99727.31;6278101;22;20149;-88
2022/12/06 02:35:36;;;;;;;27.43;9.60;;;;;;;12.90;71.38;99728.22;6278082;22;20464;-88
2022/12/06 02:38:07;;;;;;;26.07;8.63;;;;;;;12.88;71.50;99732.72;6277668;22;20158;-88
2022/12/06 02:40:41;;;;;;;36.53;10.60;;;;;;;12.83;71.81;99729.50;6278013;22;20144;-88
2022/12/06 02:43:42;;;;;;;39.27;9.90;;;;;;;12.80;72.42;99734.91;6278074;22;20136;-88
2022/12/06 02:46:10;;;;;;;27.67;10.03;;;;;;;12.80;72.59;99729.66;6250614;22;20178;-88
2022/12/06 02:48:37;;;;;;;27.20;9.83;;;;;;;12.78;72.81;99731.50;6251641;22;20477;-89
2022/12/06 02:51:08;;;;;;;29.70;10.87;;;;;;;12.79;72.52;99727.06;6277913;22;20151;-89
2022/12/06 02:53:38;;;;;;;22.13;8.90;;;;;;;12.79;72.90;99727.94;6277495;22;20162;-88
2022/12/06 02:56:04;;;;;;;32.90;9.60;;;;;;;12.77;73.18;99737.69;6277506;22;20230;-88
2022/12/06 02:58:35;;;;;;;24.97;9.57;;;;;;;12.67;72.87;99743.50;6277545;22;20205;-89
2022/12/06 03:01:05;;;;;;;31.70;9.83;;;;;;;12.41;72.76;99736.94;6277867;22;20141;-88
2022/12/06 03:03:52;;;;;;;31.60;10.03;;;;;;;12.29;72.46;99743.66;6277435;22;20587;-89
2022/12/06 03:06:32;;;;;;;28.13;10.97;;;;;;;12.21;72.83;99747.63;6277704;22;20603;-89
2022/12/06 03:09:03;;;;;;;26.80;11.37;;;;;;;12.11;72.60;99741.94;6277827;22;20145;-90
2022/12/06 03:11:54;;;;;;;24.53;10.00;;;;;;;11.92;73.33;99742.94;6277788;22;20139;-89
2022/12/06 03:14:23;;;;;;;27.33;10.40;;;;;;;11.92;73.14;99737.69;6250688;22;20239;-89
2022/12/06 03:17:10;;;;;;;27.53;10.37;;;;;;;11.79;74.00;99740.03;6277361;22;20238;-88
2022/12/06 03:19:38;;;;;;;20.10;9.57;;;;;;;11.98;73.79;99737.34;6277672;22;20152;-89
2022/12/06 03:22:34;;;;;;;26.37;11.00;;;;;;;11.99;73.70;99736.44;6245382;23;20257;-88
2022/12/06 03:25:01;;;;;;;27.90;10.13;;;;;;;12.02;73.72;99733.66;6247421;22;20135;-89
2022/12/06 03:27:29;;;;;;;27.67;10.93;;;;;;;12.10;73.66;99739.41;6246525;22;20174;-88
2022/12/06 03:29:58;;;;;;;27.87;10.97;;;;;;;12.15;73.34;99735.63;6246597;22;20222;-89
2022/12/06 03:32:29;;;;;;;39.00;11.67;;;;;;;12.21;73.37;99723.97;6246651;22;20148;-88
2022/12/06 03:34:58;;;;;;;33.37;11.37;;;;;;;12.23;73.02;99736.09;6246889;22;20139;-89
2022/12/06 03:37:29;;;;;;;32.80;11.43;;;;;;;12.23;73.13;99732.63;6246480;22;20191;-89
2022/12/06 03:40:18;;;;;;;32.00;11.40;;;;;;;12.24;73.09;99729.91;6246506;22;20273;-89
2022/12/06 03:42:46;;;;;;;28.70;11.10;;;;;;;12.24;72.88;99726.41;6246462;22;20559;-89
2022/12/06 03:45:13;;;;;;;37.90;12.00;;;;;;;12.28;73.13;99731.47;6246438;22;20149;-88
2022/12/06 03:48:07;;;;;;;36.00;10.20;;;;;;;12.31;73.03;99731.31;6246363;22;20249;-89
2022/12/06 03:50:42;;;;;;;33.83;12.80;;;;;;;12.38;72.49;99731.84;6245198;23;20154;-89
2022/12/06 03:53:08;;;;;;;33.63;13.17;;;;;;;12.40;72.40;99729.13;6245238;23;20491;-88
2022/12/06 03:55:34;;;;;;;27.80;11.53;;;;;;;12.43;71.84;99729.81;6246406;22;20152;-89
2022/12/06 03:57:59;;;;;;;30.47;10.13;;;;;;;12.38;71.57;99731.84;6245071;23;20184;-88
2022/12/06 04:00:25;;;;;;;38.43;10.23;;;;;;;12.39;71.43;99728.28;6246907;23;20247;-88
2022/12/06 04:02:50;;;;;;;41.47;11.80;;;;;;;12.30;71.93;99723.47;6245112;23;20154;-89
2022/12/06 04:05:16;;;;;;;36.47;10.67;;;;;;;12.24;72.34;99732.53;6246178;23;20577;-89
2022/12/06 04:07:41;;;;;;;24.97;9.60;;;;;;;12.15;72.29;99730.38;6245321;23;20208;-89
2022/12/06 04:10:07;;;;;;;35.30;10.40;;;;;;;12.09;72.80;99728.03;6245408;23;20157;-88
2022/12/06 04:15:18;;;;;;;37.50;9.47;;;;;;;12.11;72.92;99728.81;6246842;23;20203;-89
2022/12/06 04:23:02;;;;;;;31.83;10.57;;;;;;;12.08;73.13;99728.13;6246814;23;20160;-89
2022/12/06 04:23:17;;;;;;;30.70;10.87;;;;;;;12.09;73.09;99724.53;6268641;22;20164;-88
2022/12/06 04:25:42;;;;;;;27.30;10.17;;;;;;;12.14;72.77;99726.03;6249803;22;20176;-89
2022/12/06 04:39:04;;;;;;;36.20;9.97;;;;;;;11.85;74.32;99731.00;6276971;22;20149;-88
2022/12/06 04:44:13;;;;;;;35.60;11.37;;;;;;;11.75;74.73;99730.59;6276876;22;20234;-89
2022/12/06 04:46:39;;;;;;;30.47;10.90;;;;;;;11.67;74.83;99733.56;6276400;22;20612;-88
2022/12/06 04:49:04;;;;;;;39.80;11.30;;;;;;;11.75;74.62;99729.75;6276486;22;20144;-88
2022/12/06 04:51:30;;;;;;;31.60;11.03;;;;;;;11.75;74.70;99721.84;6276425;22;20576;-89
2022/12/06 04:53:56;;;;;;;41.27;12.57;;;;;;;11.80;74.64;99725.13;6276399;22;20222;-89
2022/12/06 04:56:21;;;;;;;37.50;11.87;;;;;;;11.84;74.62;99718.81;6276351;22;20140;-89
2022/12/06 04:58:47;;;;;;;34.30;11.23;;;;;;;11.87;74.03;99724.75;6276390;22;20173;-88
2022/12/06 05:01:12;;;;;;;42.40;12.60;;;;;;;11.80;74.13;99725.97;6249596;22;20152;-89
2022/12/06 05:03:38;;;;;;;32.80;10.67;;;;;;;11.83;74.28;99727.59;6276652;22;20148;-88
2022/12/06 05:06:04;;;;;;;33.90;12.37;;;;;;;11.86;74.22;99738.81;6276256;22;20169;-89
2022/12/06 05:08:29;;;;;;;31.87;10.93;;;;;;;11.93;73.92;99736.72;6276944;22;20184;-89
2022/12/06 05:10:55;;;;;;;35.60;12.17;;;;;;;11.88;73.91;99731.72;6276257;22;20171;-89
2022/12/06 05:13:21;;;;;;;40.43;12.43;;;;;;;11.89;73.53;99729.94;6276225;22;20163;-89
2022/12/06 05:15:51;;;;;;;35.17;10.93;;;;;;;11.80;73.69;99735.63;6249496;22;20144;-89
2022/12/06 05:18:16;;;;;;;32.97;12.03;;;;;;;11.83;73.82;99743.34;6276180;22;20215;-89
2022/12/06 05:20:42;;;;;;;42.10;12.67;;;;;;;11.80;73.66;99743.50;6249564;22;20578;-90
2022/12/06 05:23:07;;;;;;;35.53;11.50;;;;;;;11.70;74.56;99733.44;6276255;22;20175;-88
2022/12/06 05:25:32;;;;;;;30.03;11.43;;;;;;;11.57;74.86;99729.66;6276418;22;20286;-89
2022/12/06 05:27:58;;;;;;;40.13;12.93;;;;;;;11.66;74.84;99737.09;6276291;22;20144;-89
2022/12/06 05:30:23;;;;;;;41.57;13.17;;;;;;;11.75;74.58;99733.22;6249486;22;20591;-89
2022/12/06 05:32:50;;;;;;;38.37;12.50;;;;;;;11.85;74.21;99737.09;6276346;22;20522;-89
2022/12/06 05:35:16;;;;;;;47.50;12.90;;;;;;;11.88;73.60;99728.22;6276231;22;20159;-89
2022/12/06 05:37:43;;;;;;;46.63;11.73;;;;;;;11.86;73.91;99730.06;6276256;22;20560;-89
2022/12/06 05:40:09;;;;;;;40.97;13.93;;;;;;;11.87;73.96;99737.88;6276888;22;20148;-89
2022/12/06 05:42:39;;;;;;;43.57;13.83;;;;;;;11.87;74.06;99734.41;6276794;22;20580;-89
2022/12/06 05:45:07;;;;;;;39.60;12.83;;;;;;;11.89;73.72;99729.94;6275829;22;20251;-88
2022/12/06 05:47:32;;;;;;;47.97;14.60;;;;;;;11.88;74.14;99741.34;6274647;22;20199;-89
2022/12/06 05:49:57;;;;;;;41.80;14.93;;;;;;;11.89;74.19;99737.81;6274861;22;20568;-89
2022/12/06 05:52:23;;;;;;;50.33;15.37;;;;;;;11.89;74.06;99727.31;6276112;22;20144;-89
2022/12/06 05:54:48;;;;;;;68.07;17.93;;;;;;;11.94;73.92;99726.16;6276123;22;20144;-89
2022/12/06 05:57:14;;;;;;;44.97;15.20;;;;;;;11.85;74.30;99731.00;6276471;22;20146;-89
2022/12/06 05:59:40;;;;;;;49.27;15.43;;;;;;;11.81;74.56;99724.19;6276142;22;20153;-88
2022/12/06 06:02:05;;;;;;;61.00;16.03;;;;;;;11.85;75.16;99733.63;6276171;22;20583;-89
2022/12/06 06:04:31;;;;;;;57.87;16.13;;;;;;;11.88;75.36;99730.84;6276421;22;20152;-89
2022/12/06 06:06:56;;;;;;;57.90;15.57;;;;;;;11.90;75.15;99729.00;6276686;22;20177;-89
2022/12/06 06:09:23;;;;;;;52.80;13.37;;;;;;;11.97;75.09;99725.16;6249322;22;20244;-89
2022/12/06 06:11:48;;;;;;;40.83;12.93;;;;;;;11.99;75.23;99728.56;6276089;22;20173;-89
2022/12/06 06:14:14;;;;;;;48.43;14.77;;;;;;;11.92;75.14;99733.28;6276650;22;20144;-89
2022/12/06 06:16:39;;;;;;;53.30;12.67;;;;;;;11.98;75.22;99742.59;6276008;22;20167;-89
2022/12/06 06:19:05;;;;;;;45.57;13.63;;;;;;;12.00;75.27;99735.53;6276373;22;20145;-89
2022/12/06 06:21:30;;;;;;;48.43;14.20;;;;;;;12.00;75.41;99732.91;6249207;22;20156;-89
2022/12/06 06:23:56;;;;;;;46.03;14.00;;;;;;;12.04;75.34;99737.06;6249321;22;20585;-89
2022/12/06 06:26:22;;;;;;;42.40;11.97;;;;;;;12.07;75.84;99739.56;6249143;22;20251;-89
2022/12/06 06:28:47;;;;;;;53.50;12.87;;;;;;;12.10;75.50;99736.78;6249796;22;20179;-89
2022/12/06 06:31:13;;;;;;;55.97;13.70;;;;;;;12.12;75.37;99729.66;6278200;22;20145;-89
2022/12/06 06:33:38;;;;;;;39.07;11.80;;;;;;;12.09;75.72;99735.06;6278137;22;20203;-89
2022/12/06 06:36:04;;;;;;;55.90;11.60;;;;;;;12.14;75.82;99733.91;6277859;22;20145;-89
2022/12/06 06:38:30;;;;;;;50.13;12.87;;;;;;;12.18;75.65;99737.25;6277721;22;20149;-89
2022/12/06 06:40:55;;;;;;;56.80;11.83;;;;;;;12.21;75.40;99732.66;6277738;22;20280;-89
2022/12/06 06:44:10;;;;;;;66.40;13.67;;;;;;;12.24;75.89;99739.56;6250918;22;20150;-88
2022/12/06 06:49:55;;;;;;;36.13;10.73;;;;;;;12.25;75.11;99736.88;6230800;22;20153;-89
2022/12/06 06:52:21;;;;;;;54.13;9.87;;;;;;;12.33;75.26;99733.84;6277954;22;20262;-88
2022/12/06 06:54:46;;;;;;;43.93;9.47;;;;;;;12.40;74.68;99729.97;6277552;22;20150;-88
2022/12/06 06:57:12;;;;;;;46.00;11.10;;;;;;;12.42;74.39;99728.13;6277567;22;20145;-89
2022/12/06 06:59:37;;;;;;;59.20;10.20;;;;;;;12.41;74.97;99731.69;6277868;22;20146;-89
2022/12/06 07:02:03;;;;;;;51.20;11.63;;;;;;;12.39;75.10;99730.06;6277475;22;20149;-89
2022/12/06 07:04:29;;;;;;;49.00;12.90;;;;;;;12.41;75.19;99736.94;6277488;22;20225;-89
2022/12/06 07:06:54;;;;;;;49.07;11.17;;;;;;;12.38;75.34;99734.47;6277657;22;20259;-89
2022/12/06 07:09:20;;;;;;;40.43;10.57;;;;;;;12.36;75.54;99738.97;6277727;22;20316;-88
2022/12/06 07:11:45;;;;;;;59.43;11.20;;;;;;;12.32;75.49;99727.75;6250717;22;20600;-88
2022/12/06 07:14:11;;;;;;;49.13;11.70;;;;;;;12.35;75.75;99729.34;6250685;22;20159;-89
2022/12/06 07:16:36;;;;;;;42.77;10.50;;;;;;;12.28;75.52;99725.34;6277331;22;20146;-89
2022/12/06 07:19:02;;;;;;;25.53;9.77;;;;;;;12.29;75.89;99724.41;6250637;22;20151;-89
2022/12/06 07:21:27;;;;;;;28.10;9.27;;;;;;;12.29;75.84;99727.88;6277373;22;20145;-89
2022/12/06 07:23:53;;;;;;;26.00;9.13;;;;;;;12.34;76.12;99730.31;6277172;22;20199;-89
2022/12/06 07:26:21;;;;;;;38.83;12.60;;;;;;;12.31;76.28;99725.19;6277270;22;20174;-89
2022/12/06 07:28:48;;;;;;;31.23;11.43;;;;;;;12.31;75.88;99726.06;6250532;22;20155;-89
2022/12/06 07:31:17;;;;;;;31.50;10.30;;;;;;;12.28;76.13;99718.31;6250565;22;20244;-89
2022/12/06 07:33:44;;;;;;;33.57;11.10;;;;;;;12.36;75.71;99723.19;6277266;22;20185;-89
2022/12/06 07:36:11;;;;;;;29.10;10.00;;;;;;;12.45;75.88;99727.13;6277239;22;20150;-88
2022/12/06 07:38:37;;;;;;;45.00;11.80;;;;;;;12.50;75.10;99723.31;6277223;22;20147;-89
2022/12/06 07:44:59;;;;;;;36.73;11.43;;;;;;;12.51;74.93;99727.66;6277622;22;20222;-89
2022/12/06 07:46:37;;;;;;;29.70;10.37;;;;;;;12.44;75.38;99726.28;6277454;22;20212;-88
2022/12/06 07:49:02;;;;;;;40.30;10.53;;;;;;;12.52;75.38;99728.53;6277100;22;20146;-90
2022/12/06 07:51:28;;;;;;;42.43;11.83;;;;;;;12.49;75.63;99724.25;6276968;22;20155;-89
2022/12/06 07:53:54;;;;;;;31.63;9.83;;;;;;;12.51;75.35;99722.41;6277303;22;20161;-88
2022/12/06 07:56:19;;;;;;;34.07;10.77;;;;;;;12.56;75.34;99723.00;6277005;22;20565;-89
2022/12/06 07:58:45;;;;;;;24.77;8.40;;;;;;;12.52;75.21;99728.53;6277304;22;20160;-88
2022/12/06 08:01:10;;;;;;;24.63;8.97;;;;;;;12.52;75.69;99728.53;6276934;22;20151;-89
2022/12/06 08:03:36;;;;;;;22.10;8.37;;;;;;;12.61;74.89;99720.13;6277253;22;20158;-88
2022/12/06 08:06:01;;;;;;;30.97;8.77;;;;;;;12.73;74.03;99719.53;6277148;22;20176;-89
2022/12/06 08:08:27;;;;;;;32.57;11.37;;;;;;;12.78;73.61;99718.34;6277152;22;20148;-88
2022/12/06 08:10:52;;;;;;;28.50;10.20;;;;;;;12.74;74.06;99719.44;6276902;22;20151;-88
2022/12/06 08:13:18;;;;;;;30.47;9.73;;;;;;;12.71;74.37;99719.59;6276826;22;20148;-89
2022/12/06 08:15:43;;;;;;;25.23;9.23;;;;;;;12.65;74.47;99724.34;6277107;22;20160;-89
2022/12/06 08:18:09;;;;;;;31.30;8.57;;;;;;;12.71;73.69;99718.75;6277103;22;20628;-88
2022/12/06 08:20:37;;;;;;;37.07;9.33;;;;;;;12.71;73.91;99719.59;6276738;22;20150;-89
2022/12/06 08:23:03;;;;;;;24.57;9.80;;;;;;;12.74;73.69;99718.56;6276501;22;20569;-89
2022/12/06 08:25:29;;;;;;;25.57;9.20;;;;;;;12.78;74.15;99720.13;6276621;22;20151;-89
2022/12/06 08:27:54;;;;;;;26.47;8.83;;;;;;;12.83;73.93;99724.22;6276639;22;20157;-89
2022/12/06 08:30:20;;;;;;;38.87;10.93;;;;;;;12.83;73.90;99718.09;6276655;22;20152;-89
2022/12/06 08:32:46;;;;;;;24.00;8.77;;;;;;;12.87;72.86;99712.59;6249892;22;20226;-89
2022/12/06 08:35:11;;;;;;;22.93;8.40;;;;;;;12.86;73.01;99710.91;6276921;22;20618;-89
2022/12/06 08:37:36;;;;;;;25.10;8.83;;;;;;;12.86;72.71;99708.28;6276635;22;20517;-88
2022/12/06 08:40:02;;;;;;;27.93;7.90;;;;;;;12.93;72.56;99700.91;6277224;22;20213;-89
2022/12/06 08:42:28;;;;;;;24.60;8.57;;;;;;;12.91;72.57;99695.72;6249836;22;20230;-89
2022/12/06 08:44:53;;;;;;;22.43;7.87;;;;;;;13.04;71.95;99695.06;6249882;22;20540;-89
2022/12/06 08:47:19;;;;;;;25.73;8.97;;;;;;;13.06;71.18;99690.56;6276345;22;20174;-88
2022/12/06 08:49:45;;;;;;;25.43;9.03;;;;;;;12.99;71.72;99686.56;6249778;22;20170;-88
2022/12/06 08:52:11;;;;;;;24.97;8.90;;;;;;;13.04;71.98;99685.41;6276071;22;20443;-88
2022/12/06 08:54:36;;;;;;;22.47;8.03;;;;;;;13.12;71.22;99688.50;6276788;22;20186;-89
2022/12/06 08:57:02;;;;;;;24.13;9.23;;;;;;;13.13;71.41;99681.47;6276793;22;20147;-89
2022/12/06 08:59:28;;;;;;;26.03;8.87;;;;;;;13.15;71.04;99674.31;6276714;22;20150;-88
2022/12/06 09:01:53;;;;;;;22.30;7.73;;;;;;;13.10;71.21;99668.47;6276387;22;20147;-88
2022/12/06 09:04:19;;;;;;;25.90;8.87;;;;;;;13.19;70.06;99667.94;6249650;22;20667;-89
2022/12/06 09:06:45;;;;;;;29.83;9.37;;;;;;;13.19;70.46;99658.28;6276927;22;20175;-88
2022/12/06 09:09:11;;;;;;;22.03;8.47;;;;;;;13.20;70.38;99661.75;6276375;22;20223;-88
2022/12/06 09:11:38;;;;;;;26.80;8.53;;;;;;;13.19;70.34;99657.41;6249564;22;20182;-88
2022/12/06 09:14:04;;;;;;;32.60;9.47;;;;;;;13.18;69.74;99656.56;6276256;22;20221;-89
2022/12/06 09:16:30;;;;;;;24.77;9.67;;;;;;;13.07;70.51;99645.78;6276670;22;20163;-89
2022/12/06 09:18:56;;;;;;;26.23;10.23;;;;;;;13.08;71.06;99646.63;6249462;22;20161;-89
2022/12/06 09:21:24;;;;;;;24.00;9.47;;;;;;;13.15;70.59;99640.97;6276242;22;20474;-89
2022/12/06 09:23:54;;;;;;;28.60;9.83;;;;;;;13.20;70.28;99636.28;6276542;22;20170;-88
2022/12/06 09:26:19;;;;;;;38.53;11.10;;;;;;;13.13;71.01;99639.34;6276464;22;20201;-89
2022/12/06 09:28:50;;;;;;;39.20;11.17;;;;;;;13.13;71.31;99636.72;6276601;22;20152;-89
2022/12/06 09:31:16;;;;;;;31.50;10.40;;;;;;;13.15;71.56;99640.97;6276261;22;20159;-89
2022/12/06 09:33:42;;;;;;;26.27;9.20;;;;;;;13.24;70.78;99632.53;6276579;22;20213;-89
2022/12/06 09:36:17;;;;;;;25.90;8.27;;;;;;;13.22;70.28;99630.94;6276250;22;20148;-89
2022/12/06 09:38:44;;;;;;;24.03;9.17;;;;;;;13.25;70.14;99617.59;6276545;22;20583;-89
2022/12/06 09:41:28;;;;;;;33.97;9.93;;;;;;;13.15;70.13;99614.63;6276477;22;20157;-89
2022/12/06 09:44:12;;;;;;;22.40;9.10;;;;;;;13.24;70.33;99618.53;6249415;22;20155;-88
2022/12/06 09:46:52;;;;;;;24.73;8.20;;;;;;;13.22;70.32;99615.13;6276467;22;20173;-89
2022/12/06 09:49:49;;;;;;;23.23;9.83;;;;;;;13.22;70.10;99609.88;6276581;22;20136;-89
2022/12/06 09:52:39;;;;;;;27.80;9.17;;;;;;;13.36;69.14;99609.97;6276785;22;20453;-89
2022/12/06 09:55:28;;;;;;;21.47;8.90;;;;;;;13.40;69.28;99608.84;6249302;22;20583;-89
2022/12/06 09:58:32;;;;;;;31.50;9.10;;;;;;;13.42;68.96;99602.53;6276816;22;20537;-88
2022/12/06 10:01:43;;;;;;;25.20;8.03;;;;;;;13.42;69.11;99601.69;6276123;22;20225;-89
2022/12/06 10:04:21;;;;;;;29.37;8.70;;;;;;;13.47;68.43;99594.38;6225629;22;20556;-89
2022/12/06 10:06:58;;;;;;;23.90;8.20;;;;;;;13.46;68.51;99584.78;6251184;22;20179;-88
2022/12/06 10:09:42;;;;;;;21.47;8.20;;;;;;;13.51;68.13;99593.28;6278417;22;20136;-89
2022/12/06 10:12:36;;;;;;;23.07;8.53;;;;;;;13.50;67.99;99583.66;6278699;22;20140;-89
2022/12/06 10:15:25;;;;;;;21.87;8.30;;;;;;;13.57;68.38;99576.28;6278352;22;20132;-88
2022/12/06 10:18:14;;;;;;;18.13;7.73;;;;;;;13.61;68.16;99568.09;6278037;22;20135;-88
2022/12/06 10:20:46;;;;;;;26.37;8.43;;;;;;;13.65;67.91;99572.28;6278724;22;20202;-88
2022/12/06 10:23:48;;;;;;;19.00;7.67;;;;;;;13.59;67.58;99566.50;6277868;22;20181;-89
2022/12/06 10:26:14;;;;;;;20.77;7.50;;;;;;;13.39;67.90;99565.84;6278191;22;20183;-88
2022/12/06 10:28:42;;;;;;;22.23;9.40;;;;;;;13.49;67.32;99558.28;6277860;22;20147;-89
2022/12/06 10:31:26;;;;;;;21.53;8.57;;;;;;;13.46;67.71;99553.19;6277824;22;20218;-88
2022/12/06 10:34:04;;;;;;;16.40;7.23;;;;;;;13.31;68.17;99559.34;6278187;22;20190;-89
2022/12/06 10:36:55;;;;;;;18.57;8.03;;;;;;;13.33;68.77;99558.31;6278173;22;20133;-89
2022/12/06 10:39:40;;;;;;;23.77;8.20;;;;;;;13.54;68.15;99551.81;6250952;22;20537;-88
2022/12/06 10:42:19;;;;;;;22.43;8.00;;;;;;;13.63;68.11;99544.28;6250997;22;20448;-89
2022/12/06 10:44:50;;;;;;;22.93;9.20;;;;;;;13.68;67.82;99543.09;6277719;22;20406;-89
2022/12/06 10:47:23;;;;;;;29.83;7.80;;;;;;;13.72;67.55;99549.91;6277614;22;20222;-88
2022/12/06 10:50:13;;;;;;;21.83;9.00;;;;;;;13.71;67.61;99542.91;6277711;22;20140;-89
2022/12/06 10:53:11;;;;;;;23.50;9.03;;;;;;;13.67;67.37;99530.03;6277959;22;20133;-88
2022/12/06 10:55:48;;;;;;;20.60;7.73;;;;;;;13.76;67.50;99526.81;6261392;22;20166;-89
2022/12/06 10:58:26;;;;;;;19.57;7.00;;;;;;;13.91;65.08;99521.53;6277915;22;20211;-88
2022/12/06 11:01:02;;;;;;;20.80;6.47;;;;;;;13.94;64.91;99513.41;6250773;22;20183;-89
2022/12/06 11:03:33;;;;;;;19.63;7.23;;;;;;;14.05;65.63;99516.25;6250953;22;20148;-89
2022/12/06 11:06:13;;;;;;;20.03;6.43;;;;;;;14.06;64.94;99504.78;6278115;22;20254;-89
2022/12/06 11:08:47;;;;;;;16.57;6.97;;;;;;;14.13;65.30;99503.44;6250808;22;20181;-89
2022/12/06 11:11:17;;;;;;;22.30;8.03;;;;;;;14.22;65.60;99503.81;6277864;22;20132;-89
2022/12/06 11:14:03;;;;;;;17.70;6.57;;;;;;;14.38;65.22;99501.97;6250592;22;20148;-88
2022/12/06 11:16:38;;;;;;;17.33;6.47;;;;;;;14.37;64.84;99489.72;6277823;22;20160;-88
2022/12/06 11:19:38;;;;;;;19.50;6.83;;;;;;;14.21;63.83;99483.66;6277762;22;20555;-89
2022/12/06 11:22:06;;;;;;;14.67;6.10;;;;;;;14.23;64.64;99481.81;6278037;22;20164;-89
2022/12/06 11:24:38;;;;;;;16.73;6.50;;;;;;;14.14;64.58;99475.31;6277675;22;20149;-88
2022/12/06 11:27:16;;;;;;;15.43;6.80;;;;;;;14.24;65.13;99470.31;6277278;22;20160;-89
2022/12/06 11:29:46;;;;;;;22.20;7.03;;;;;;;14.26;64.37;99466.63;6250695;22;20161;-88
2022/12/06 11:32:13;;;;;;;20.67;7.83;;;;;;;14.26;64.49;99461.34;6278183;22;20152;-88
2022/12/06 11:34:45;;;;;;;15.47;6.07;;;;;;;14.16;64.14;99458.44;6277677;22;20141;-89
2022/12/06 11:37:19;;;;;;;16.03;6.27;;;;;;;14.01;64.89;99458.53;6277609;22;20563;-89
2022/12/06 11:39:51;;;;;;;21.27;6.80;;;;;;;14.18;64.84;99465.44;6277599;22;20144;-88
2022/12/06 11:42:24;;;;;;;17.17;6.73;;;;;;;14.15;64.41;99458.53;6250448;22;20148;-89
2022/12/06 11:44:59;;;;;;;16.30;5.70;;;;;;;14.15;64.11;99451.47;6277545;22;20135;-88
2022/12/06 11:47:25;;;;;;;17.17;7.33;;;;;;;14.34;62.89;99451.22;6277708;22;20568;-88
2022/12/06 11:49:54;;;;;;;14.57;5.33;;;;;;;14.50;62.19;99448.44;6277058;22;20234;-88
2022/12/06 11:52:44;;;;;;;17.07;7.47;;;;;;;14.60;62.49;99441.63;6277422;22;20155;-89
2022/12/06 11:55:21;;;;;;;18.00;6.60;;;;;;;14.48;63.00;99431.88;6277471;22;20251;-89
2022/12/06 11:57:56;;;;;;;18.57;7.17;;;;;;;14.42;63.17;99432.25;6278096;22;20143;-88
2022/12/06 12:00:23;;;;;;;14.23;5.23;;;;;;;14.54;63.25;99429.69;6250354;22;20172;-89
2022/12/06 12:02:52;;;;;;;19.47;5.97;;;;;;;14.71;62.36;99433.88;6277328;22;20174;-89